^^
Saratoga-Weather Station Historical Data
Daily Summary for June 12, 2021 Units:  English    Metric   Both
Daily Weekly Monthly Yearly Custom
  High: Low: Average:
Temperature: 73.8 °F 52.2 °F 61.3 °F
Dew Point: 59.9 °F 50.9 °F 55 °F
Humidity: 97% 55% 81%
Wind Speed: 8.1mph 0mph 0.7mph
Wind Gust: 9mph - -
Wind- - WSW
Pressure: 30.1 in 30 in -
Precipitation: 0 in    
Historical Graphs
 
 
Tabular Data for June 12, 2021
Time Temperature Dew Point Pressure Wind Wind Speed Wind Gust Humidity Rainfall Rate (Hourly) solar
00:03 55.2 °F 52.9 °F 30.1 in Calm     92% 0 in 0 W/m2
00:08 55.2 °F 52.9 °F 30.1 in Calm     92% 0 in 0 W/m2
00:13 55.2 °F 53.2 °F 30.1 in Calm     93% 0 in 0 W/m2
00:18 55.2 °F 53.2 °F 30.1 in Calm     93% 0 in 0 W/m2
00:23 55 °F 53.1 °F 30.1 in Calm     93% 0 in 0 W/m2
00:28 55 °F 53.1 °F 30.1 in Calm     93% 0 in 0 W/m2
00:33 55 °F 53.1 °F 30.1 in Calm     93% 0 in 0 W/m2
00:38 55 °F 53.1 °F 30.1 in Calm     93% 0 in 0 W/m2
00:43 54.9 °F 52.9 °F 30.1 in Calm     93% 0 in 0 W/m2
00:48 54.9 °F 52.9 °F 30.1 in Calm     93% 0 in 0 W/m2
00:53 54.9 °F 53.2 °F 30.1 in Calm   1 mph 94% 0 in 0 W/m2
00:58 54.9 °F 53.2 °F 30.1 in Calm     94% 0 in 0 W/m2
01:03 54.9 °F 53.2 °F 30.1 in Calm     94% 0 in 0 W/m2
01:08 54.9 °F 53.2 °F 30.1 in Calm     94% 0 in 0 W/m2
01:13 54.7 °F 53.1 °F 30.1 in Calm     94% 0 in 0 W/m2
01:18 54.7 °F 52.7 °F 30.1 in Calm     93% 0 in 0 W/m2
01:23 54.3 °F 52.7 °F 30.1 in Calm     94% 0 in 0 W/m2
01:28 54.3 °F 52.7 °F 30.1 in Calm     94% 0 in 0 W/m2
01:33 54.1 °F 52.5 °F 30.1 in Calm     94% 0 in 0 W/m2
01:38 54.1 °F 52.5 °F 30.1 in Calm     94% 0 in 0 W/m2
01:43 54 °F 52.3 °F 30.1 in Calm     94% 0 in 0 W/m2
01:48 54 °F 52.3 °F 30.1 in Calm     94% 0 in 0 W/m2
01:53 54 °F 52.3 °F 30.1 in Calm     94% 0 in 0 W/m2
01:58 53.8 °F 52.2 °F 30.1 in Calm     94% 0 in 0 W/m2
02:03 53.8 °F 52.2 °F 30.1 in Calm     94% 0 in 0 W/m2
02:08 53.6 °F 52 °F 30.1 in Calm     94% 0 in 0 W/m2
02:13 53.4 °F 51.8 °F 30.1 in Calm     94% 0 in 0 W/m2
02:18 53.4 °F 51.8 °F 30.1 in Calm     94% 0 in 0 W/m2
02:23 53.2 °F 51.6 °F 30.1 in Calm     94% 0 in 0 W/m2
02:28 53.4 °F 52 °F 30.1 in Calm     95% 0 in 0 W/m2
02:33 53.4 °F 52 °F 30.1 in Calm     95% 0 in 0 W/m2
02:38 53.4 °F 52 °F 30.1 in Calm     95% 0 in 0 W/m2
02:43 53.4 °F 52 °F 30.1 in Calm     95% 0 in 0 W/m2
02:48 53.4 °F 52 °F 30.1 in Calm     95% 0 in 0 W/m2
02:53 53.4 °F 52 °F 30.1 in Calm     95% 0 in 0 W/m2
02:58 53.2 °F 51.8 °F 30.1 in Calm     95% 0 in 0 W/m2
03:03 53.2 °F 51.8 °F 30.1 in Calm     95% 0 in 0 W/m2
03:08 53.1 °F 51.6 °F 30.1 in Calm     95% 0 in 0 W/m2
03:13 53.1 °F 51.6 °F 30.1 in Calm     95% 0 in 0 W/m2
03:18 53.1 °F 51.6 °F 30.1 in Calm   2 mph 95% 0 in 0 W/m2
03:23 53.2 °F 51.8 °F 30.1 in West 0.9 mph 2 mph 95% 0 in 0 W/m2
03:28 53.2 °F 51.8 °F 30.1 in Calm     95% 0 in 0 W/m2
03:33 53.2 °F 51.8 °F 30.1 in West 0.9 mph 2 mph 95% 0 in 0 W/m2
03:38 53.2 °F 51.8 °F 30.1 in Calm     95% 0 in 0 W/m2
03:43 53.2 °F 51.8 °F 30.1 in Calm     95% 0 in 0 W/m2
03:48 53.1 °F 51.6 °F 30.1 in Calm     95% 0 in 0 W/m2
03:53 53.1 °F 51.6 °F 30.1 in Calm     95% 0 in 0 W/m2
03:58 53.1 °F 51.6 °F 30.1 in Calm     95% 0 in 0 W/m2
04:03 53.1 °F 51.6 °F 30.1 in Calm     95% 0 in 0 W/m2
04:08 52.9 °F 51.4 °F 30.1 in Calm     95% 0 in 0 W/m2
04:13 52.7 °F 51.3 °F 30.1 in Calm     95% 0 in 0 W/m2
04:18 52.5 °F 51.1 °F 30.1 in Calm     95% 0 in 0 W/m2
04:23 52.5 °F 51.1 °F 30.1 in Calm     95% 0 in 0 W/m2
04:28 52.3 °F 50.9 °F 30.1 in Calm     95% 0 in 0 W/m2
04:33 52.3 °F 50.9 °F 30.1 in Calm     95% 0 in 0 W/m2
04:38 52.3 °F 50.9 °F 30.1 in Calm     95% 0 in 0 W/m2
04:43 52.3 °F 51.3 °F 30.1 in Calm     96% 0 in 0 W/m2
04:48 52.3 °F 51.3 °F 30.1 in Calm     96% 0 in 0 W/m2
04:53 52.3 °F 51.3 °F 30.1 in Calm     96% 0 in 0 W/m2
04:58 52.3 °F 51.3 °F 30.1 in Calm   1 mph 96% 0 in 0 W/m2
05:03 52.5 °F 51.4 °F 30.1 in Calm     96% 0 in 0 W/m2
05:08 52.3 °F 51.3 °F 30.1 in Calm     96% 0 in 0 W/m2
05:13 52.3 °F 51.3 °F 30.1 in Calm     96% 0 in 0 W/m2
05:18 52.3 °F 51.3 °F 30.1 in Calm     96% 0 in 0 W/m2
05:23 52.2 °F 51.1 °F 30.1 in Calm     96% 0 in 0 W/m2
05:28 52.2 °F 51.1 °F 30.1 in Calm     96% 0 in 0 W/m2
05:33 52.2 °F 51.1 °F 30.1 in Calm     96% 0 in 0 W/m2
05:38 52.2 °F 51.1 °F 30.1 in Calm     96% 0 in 0 W/m2
05:43 52.2 °F 51.1 °F 30.1 in Calm     96% 0 in 0 W/m2
05:48 52.2 °F 51.1 °F 30.1 in Calm     96% 0 in 0 W/m2
05:53 52.2 °F 51.1 °F 30.1 in Calm     96% 0 in 0 W/m2
05:58 52.2 °F 51.1 °F 30.1 in Calm     96% 0 in 0 W/m2
06:03 52.2 °F 51.1 °F 30.1 in Calm     96% 0 in 0 W/m2
06:08 52.3 °F 51.3 °F 30.1 in Calm     96% 0 in 0 W/m2
06:13 52.3 °F 51.3 °F 30.1 in Calm     96% 0 in 0 W/m2
06:18 52.5 °F 51.4 °F 30.1 in Calm     96% 0 in 0 W/m2
06:24 52.5 °F 51.4 °F 30.1 in Calm     96% 0 in 0 W/m2
06:29 52.9 °F 51.8 °F 30.1 in Calm     96% 0 in 0 W/m2
06:34 53.1 °F 52 °F 30.1 in Calm     96% 0 in 0 W/m2
06:39 53.2 °F 52.3 °F 30.1 in Calm     97% 0 in 0 W/m2
06:44 53.2 °F 52.2 °F 30.1 in Calm     96% 0 in 0 W/m2
06:49 53.2 °F 52.2 °F 30.1 in Calm     96% 0 in 0 W/m2
06:54 53.2 °F 52.2 °F 30.1 in Calm     96% 0 in 0 W/m2
06:59 53.2 °F 52.2 °F 30.1 in Calm     96% 0 in 0 W/m2
07:04 53.4 °F 52.3 °F 30.1 in Calm     96% 0 in 0 W/m2
07:09 53.4 °F 52.3 °F 30.1 in Calm     96% 0 in 0 W/m2
07:14 53.4 °F 52.3 °F 30.1 in Calm     96% 0 in 5 W/m2
07:19 53.4 °F 52.3 °F 30.1 in Calm     96% 0 in 7 W/m2
07:24 53.6 °F 52.5 °F 30.1 in Calm   1 mph 96% 0 in 11 W/m2
07:29 53.8 °F 52.9 °F 30.1 in Calm     97% 0 in 12 W/m2
07:34 53.8 °F 52.7 °F 30.1 in Calm     96% 0 in 16 W/m2
07:39 53.8 °F 52.7 °F 30.1 in Calm     96% 0 in 19 W/m2
07:44 53.8 °F 52.7 °F 30.1 in Calm     96% 0 in 21 W/m2
07:49 54 °F 52.9 °F 30.1 in Calm   1 mph 96% 0 in 26 W/m2
07:54 54 °F 52.9 °F 30.1 in Calm     96% 0 in 30 W/m2
07:59 54 °F 52.9 °F 30.1 in Calm     96% 0 in 35 W/m2
08:04 54 °F 52.9 °F 30.1 in Calm     96% 0 in 40 W/m2
08:09 54.1 °F 53.1 °F 30.1 in Calm     96% 0 in 47 W/m2
08:14 54.1 °F 53.1 °F 30.1 in Calm     96% 0 in 32 W/m2
08:19 54.3 °F 53.4 °F 30.1 in Calm     97% 0 in 53 W/m2
08:24 54.3 °F 53.4 °F 30.1 in Calm     97% 0 in 60 W/m2
08:29 54.5 °F 53.6 °F 30.1 in Calm     97% 0 in 72 W/m2
08:34 54.7 °F 53.6 °F 30.1 in Calm     96% 0 in 74 W/m2
08:39 54.9 °F 53.8 °F 30.1 in Calm     96% 0 in 81 W/m2
08:44 54.9 °F 54 °F 30.1 in Calm     97% 0 in 90 W/m2
08:49 55 °F 54 °F 30.1 in Calm     96% 0 in 91 W/m2
08:54 55.2 °F 54.1 °F 30.1 in Calm   1 mph 96% 0 in 104 W/m2
08:59 55.4 °F 54.3 °F 30.1 in Calm     96% 0 in 107 W/m2
09:04 55.8 °F 54.7 °F 30.1 in Calm   1 mph 96% 0 in 113 W/m2
09:09 55.9 °F 54.9 °F 30.1 in Calm     96% 0 in 118 W/m2
09:14 56.1 °F 55 °F 30.1 in NW 2 mph 2 mph 96% 0 in 120 W/m2
09:19 56.3 °F 54.9 °F 30.1 in Calm     95% 0 in 120 W/m2
09:24 56.5 °F 55 °F 30.1 in NW 2 mph 2 mph 95% 0 in 123 W/m2
09:29 56.7 °F 55.2 °F 30.1 in Calm     95% 0 in 130 W/m2
09:34 57 °F 55.6 °F 30.1 in Calm     95% 0 in 141 W/m2
09:39 57.4 °F 55.6 °F 30.1 in Calm     94% 0 in 146 W/m2
09:44 57.7 °F 55.9 °F 30.1 in Calm     94% 0 in 149 W/m2
09:50 57.9 °F 55.9 °F 30.1 in Calm     93% 0 in 160 W/m2
09:55 58.3 °F 55.9 °F 30.1 in Calm   2 mph 92% 0 in 178 W/m2
10:00 58.5 °F 56.1 °F 30.1 in Calm   1 mph 92% 0 in 178 W/m2
10:05 58.8 °F 56.1 °F 30.1 in Calm   2 mph 91% 0 in 183 W/m2
10:10 59.2 °F 56.5 °F 30.1 in Calm     91% 0 in 181 W/m2
10:15 59.4 °F 56.5 °F 30.1 in Calm   2 mph 90% 0 in 186 W/m2
10:20 59.7 °F 56.8 °F 30.1 in Calm   1 mph 90% 0 in 192 W/m2
10:25 59.9 °F 56.7 °F 30.1 in Calm     89% 0 in 199 W/m2
10:30 60.3 °F 57 °F 30.1 in Calm     89% 0 in 207 W/m2
10:35 60.4 °F 57.2 °F 30.1 in Calm     89% 0 in 262 W/m2
10:40 60.8 °F 57.2 °F 30.1 in Calm     88% 0 in 239 W/m2
10:45 61.2 °F 57.6 °F 30.1 in Calm     88% 0 in 202 W/m2
10:50 61.5 °F 57.9 °F 30.1 in Calm   1 mph 88% 0 in 297 W/m2
10:55 61.9 °F 57.9 °F 30.1 in Calm     87% 0 in 338 W/m2
11:00 62.2 °F 58.3 °F 30.1 in Calm     87% 0 in 390 W/m2
11:05 63 °F 58.6 °F 30.1 in ENE 0.9 mph 2 mph 86% 0 in 325 W/m2
11:10 63.5 °F 58.8 °F 30.1 in ENE 0.9 mph 1 mph 85% 0 in 642 W/m2
11:15 64 °F 58.8 °F 30.1 in ENE 0.9 mph 3 mph 83% 0 in 417 W/m2
11:20 64.2 °F 58.3 °F 30.1 in ESE 2 mph 3 mph 81% 0 in 577 W/m2
11:25 64.6 °F 58.3 °F 30.1 in Calm   2 mph 80% 0 in 591 W/m2
11:30 64.9 °F 58.6 °F 30.1 in ESE 0.9 mph 3 mph 80% 0 in 552 W/m2
11:35 65.5 °F 58.5 °F 30.1 in ENE 2 mph 4 mph 78% 0 in 584 W/m2
11:40 65.8 °F 58.5 °F 30.1 in SE 2 mph 2 mph 77% 0 in 606 W/m2
11:45 66.6 °F 58.5 °F 30.1 in Calm   4 mph 75% 0 in 606 W/m2
11:50 67.1 °F 58.1 °F 30.1 in SE 2 mph 2 mph 73% 0 in 622 W/m2
11:55 67.8 °F 58.8 °F 30.1 in NE 2 mph 3 mph 73% 0 in 629 W/m2
12:00 68.4 °F 59 °F 30.1 in Calm   3 mph 72% 0 in 635 W/m2
12:05 69.1 °F 58.8 °F 30.1 in Calm   1 mph 70% 0 in 649 W/m2
12:10 69.6 °F 59 °F 30.1 in ENE 0.9 mph 2 mph 69% 0 in 661 W/m2
12:15 70 °F 58.5 °F 30.1 in Calm   2 mph 67% 0 in 675 W/m2
12:20 70.3 °F 58.5 °F 30.1 in NE 0.9 mph 4 mph 66% 0 in 707 W/m2
12:25 70.5 °F 58.6 °F 30.1 in ESE 0.9 mph 3 mph 66% 0 in 735 W/m2
12:30 70.3 °F 58.5 °F 30.1 in NNW 2 mph 3 mph 66% 0 in 719 W/m2
12:35 70.5 °F 59 °F 30.1 in NW 0.9 mph 4 mph 67% 0 in 747 W/m2
12:40 71.1 °F 58.6 °F 30.1 in NW 0.9 mph 4 mph 65% 0 in 814 W/m2
12:45 71.1 °F 58.6 °F 30.1 in West 4 mph 4 mph 65% 0 in 795 W/m2
12:50 70.9 °F 59 °F 30.1 in NW 0.9 mph 1 mph 66% 0 in 759 W/m2
12:55 71.1 °F 57.4 °F 30.1 in SW 4.9 mph 6 mph 62% 0 in 729 W/m2
13:00 70.9 °F 56.3 °F 30.1 in West 4 mph 7 mph 60% 0 in 729 W/m2
13:05 70.9 °F 55.4 °F 30.1 in NW 2.9 mph 8 mph 58% 0 in 749 W/m2
13:10 71.1 °F 55.6 °F 30.1 in WNW 2.9 mph 6 mph 58% 0 in 777 W/m2
13:15 71.4 °F 55.9 °F 30.1 in WNW 2 mph 8 mph 58% 0 in 819 W/m2
13:20 71.8 °F 56.1 °F 30.1 in West 6.9 mph 7 mph 58% 0 in 868 W/m2
13:25 72 °F 55.4 °F 30.1 in NW 2 mph 8 mph 56% 0 in 886 W/m2
13:30 72 °F 55.4 °F 30 in WNW 4 mph 7 mph 56% 0 in 875 W/m2
13:35 72.1 °F 56.1 °F 30 in WNW 4.9 mph 8 mph 57% 0 in 874 W/m2
13:40 71.8 °F 56.1 °F 30 in North 2 mph 5 mph 58% 0 in 807 W/m2
13:45 71.8 °F 55.8 °F 30 in WSW 2.9 mph 8 mph 57% 0 in 218 W/m2
13:50 71.2 °F 55.2 °F 30 in NW 2 mph 5 mph 57% 0 in 199 W/m2
13:55 71.2 °F 56.1 °F 30 in West 2 mph 3 mph 59% 0 in 751 W/m2
14:01 71.6 °F 56.5 °F 30 in West 8.1 mph 8 mph 59% 0 in 742 W/m2
14:06 71.8 °F 55.2 °F 30 in WNW 2.9 mph 4 mph 56% 0 in 752 W/m2
14:11 72 °F 55.4 °F 30 in SW 2 mph 5 mph 56% 0 in 768 W/m2
14:16 72.1 °F 55.6 °F 30 in NW 2.9 mph 3 mph 56% 0 in 793 W/m2
14:21 72.7 °F 57 °F 30 in Calm     58% 0 in 742 W/m2
14:26 72.9 °F 57.2 °F 30 in SSW 0.9 mph 3 mph 58% 0 in 193 W/m2
14:31 72.5 °F 55.9 °F 30 in WNW 2 mph 6 mph 56% 0 in 772 W/m2
14:36 72.5 °F 55.9 °F 30 in West 0.9 mph 6 mph 56% 0 in 738 W/m2
14:41 72.7 °F 56.5 °F 30 in WNW 0.9 mph 3 mph 57% 0 in 738 W/m2
14:46 72.9 °F 55.8 °F 30 in West 2 mph 4 mph 55% 0 in 765 W/m2
14:51 72.9 °F 55.8 °F 30 in WNW 2 mph 3 mph 55% 0 in 823 W/m2
14:56 73.2 °F 57 °F 30 in West 2 mph 3 mph 57% 0 in 817 W/m2
15:01 73.8 °F 56.7 °F 30 in Calm   4 mph 55% 0 in 823 W/m2
15:06 73.4 °F 56.3 °F 30 in WNW 2 mph 9 mph 55% 0 in 207 W/m2
15:11 72.7 °F 56.1 °F 30 in West 4 mph 5 mph 56% 0 in 185 W/m2
15:16 72.1 °F 56.1 °F 30 in NW 2.9 mph 5 mph 57% 0 in 153 W/m2
15:21 71.8 °F 56.7 °F 30 in WSW 0.9 mph 2 mph 59% 0 in 255 W/m2
15:26 71.8 °F 56.1 °F 30 in NNW 2 mph 4 mph 58% 0 in 163 W/m2
15:31 72.1 °F 56.5 °F 30 in West 2 mph 4 mph 58% 0 in 195 W/m2
15:36 71.8 °F 55.8 °F 30 in WSW 2 mph 4 mph 57% 0 in 193 W/m2
15:41 71.4 °F 57.2 °F 30 in Calm   3 mph 61% 0 in 204 W/m2
15:46 71.2 °F 56.7 °F 30 in WNW 4 mph 4 mph 60% 0 in 174 W/m2
15:51 71.1 °F 56.5 °F 30 in WNW 2 mph 4 mph 60% 0 in 148 W/m2
15:56 71.1 °F 56.5 °F 30 in WSW 0.9 mph 3 mph 60% 0 in 176 W/m2
16:01 71.6 °F 56.5 °F 30 in NW 2 mph 6 mph 59% 0 in 211 W/m2
16:06 71.8 °F 56.7 °F 30 in Calm   4 mph 59% 0 in 151 W/m2
16:11 71.4 °F 56.8 °F 30 in West 6 mph 7 mph 60% 0 in 135 W/m2
16:16 71.1 °F 57.4 °F 30 in West 2 mph 4 mph 62% 0 in 171 W/m2
16:21 70.9 °F 57.7 °F 30 in West 2 mph 7 mph 63% 0 in 188 W/m2
16:26 70.9 °F 58.1 °F 30 in WSW 0.9 mph 3 mph 64% 0 in 163 W/m2
16:31 71.1 °F 57.7 °F 30 in Calm   2 mph 63% 0 in 262 W/m2
16:36 71.1 °F 57.4 °F 30 in Calm   3 mph 62% 0 in 178 W/m2
16:41 71.2 °F 57.6 °F 30 in Calm   2 mph 62% 0 in 163 W/m2
16:46 71.4 °F 58.6 °F 30 in Calm   3 mph 64% 0 in 165 W/m2
16:51 71.4 °F 59 °F 30 in Calm   1 mph 65% 0 in 185 W/m2
16:56 71.4 °F 59.9 °F 30 in WNW 0.9 mph 2 mph 67% 0 in 202 W/m2
17:01 71.6 °F 59.2 °F 30 in West 6 mph 6 mph 65% 0 in 295 W/m2
17:06 71.6 °F 57.9 °F 30 in West 2 mph 7 mph 62% 0 in 244 W/m2
17:11 71.4 °F 58.1 °F 30 in West 2 mph 4 mph 63% 0 in 158 W/m2
17:16 71.1 °F 57.7 °F 30 in WSW 2.9 mph 4 mph 63% 0 in 155 W/m2
17:21 71.1 °F 57.7 °F 30 in WSW 2 mph 4 mph 63% 0 in 369 W/m2
17:26 71.4 °F 58.6 °F 30 in NW 4 mph 7 mph 64% 0 in 353 W/m2
17:31 71.8 °F 57.6 °F 30 in NW 2.9 mph 4 mph 61% 0 in 206 W/m2
17:36 72 °F 57.4 °F 30 in West 2 mph 7 mph 60% 0 in 146 W/m2
17:41 72 °F 57.4 °F 30 in WNW 2.9 mph 6 mph 60% 0 in 204 W/m2
17:47 71.8 °F 57.6 °F 30 in WSW 4 mph 5 mph 61% 0 in 199 W/m2
17:52 71.4 °F 57.2 °F 30 in NW 4 mph 4 mph 61% 0 in 199 W/m2
17:57 71.4 °F 56.8 °F 30 in West 2 mph 4 mph 60% 0 in 174 W/m2
18:02 71.4 °F 56.3 °F 30 in WNW 0.9 mph 5 mph 59% 0 in 148 W/m2
18:07 71.4 °F 55.9 °F 30 in WNW 0.9 mph 5 mph 58% 0 in 155 W/m2
18:12 71.4 °F 56.3 °F 30 in NW 0.9 mph 2 mph 59% 0 in 158 W/m2
18:17 71.4 °F 57.7 °F 30 in WSW 0.9 mph 4 mph 62% 0 in 151 W/m2
18:22 71.1 °F 58.3 °F 30 in West 2 mph 3 mph 64% 0 in 163 W/m2
18:27 70.7 °F 57.6 °F 30 in West 2 mph 4 mph 63% 0 in 142 W/m2
18:32 70.3 °F 57.2 °F 30 in WSW 2 mph 4 mph 63% 0 in 107 W/m2
18:37 70 °F 57.7 °F 30 in SSW 2 mph 5 mph 65% 0 in 74 W/m2
18:42 69.4 °F 57.6 °F 30 in WSW 2 mph 2 mph 66% 0 in 67 W/m2
18:47 69.1 °F 58.1 °F 30 in WSW 2.9 mph 6 mph 68% 0 in 86 W/m2
18:52 69.1 °F 57.7 °F 30 in WSW 2.9 mph 6 mph 67% 0 in 79 W/m2
18:57 69.1 °F 57.7 °F 30 in WNW 2 mph 7 mph 67% 0 in 62 W/m2
19:02 69.1 °F 57.7 °F 30 in WSW 2 mph 4 mph 67% 0 in 47 W/m2
19:07 68.7 °F 57.7 °F 30 in West 2 mph 7 mph 68% 0 in 40 W/m2
19:12 68.4 °F 58.3 °F 30 in WSW 2 mph 2 mph 70% 0 in 35 W/m2
19:17 67.8 °F 57.7 °F 30 in WSW 2 mph 3 mph 70% 0 in 32 W/m2
19:22 67.5 °F 57.7 °F 30 in WSW 2 mph 3 mph 71% 0 in 28 W/m2
19:27 67.3 °F 57.6 °F 30 in WSW 2.9 mph 4 mph 71% 0 in 26 W/m2
19:32 66.9 °F 57.6 °F 30 in Calm   1 mph 72% 0 in 23 W/m2
19:37 66.7 °F 57.7 °F 30 in WSW 0.9 mph 4 mph 73% 0 in 19 W/m2
19:42 66.6 °F 58.1 °F 30 in Calm   1 mph 74% 0 in 16 W/m2
19:47 66 °F 57.9 °F 30 in Calm   1 mph 75% 0 in 12 W/m2
19:52 65.7 °F 57.9 °F 30 in WSW 2 mph 2 mph 76% 0 in 5 W/m2
19:57 65.5 °F 57.7 °F 30 in WSW 2 mph 2 mph 76% 0 in 0 W/m2
20:02 64.9 °F 57.6 °F 30 in WSW 0.9 mph 2 mph 77% 0 in 0 W/m2
20:07 64.8 °F 57.7 °F 30 in WSW 0.9 mph 2 mph 78% 0 in 0 W/m2
20:12 64.4 °F 57.4 °F 30 in Calm   1 mph 78% 0 in 0 W/m2
20:17 64 °F 57 °F 30 in Calm     78% 0 in 0 W/m2
20:22 63.9 °F 57.2 °F 30 in Calm     79% 0 in 0 W/m2
20:27 63.7 °F 57.4 °F 30 in Calm   2 mph 80% 0 in 0 W/m2
20:32 63.3 °F 57 °F 30 in WSW 0.9 mph 1 mph 80% 0 in 0 W/m2
20:37 63.1 °F 57.2 °F 30 in Calm   2 mph 81% 0 in 0 W/m2
20:42 62.8 °F 56.8 °F 30 in Calm   1 mph 81% 0 in 0 W/m2
20:47 62.6 °F 57 °F 30 in Calm     82% 0 in 0 W/m2
20:52 62.2 °F 56.7 °F 30 in Calm     82% 0 in 0 W/m2
20:57 62.1 °F 56.8 °F 30 in Calm     83% 0 in 0 W/m2
21:02 62.1 °F 56.8 °F 30 in Calm     83% 0 in 0 W/m2
21:07 61.9 °F 56.7 °F 30 in Calm     83% 0 in 0 W/m2
21:12 61.5 °F 56.3 °F 30 in Calm     83% 0 in 0 W/m2
21:17 61.3 °F 56.5 °F 30 in Calm     84% 0 in 0 W/m2
21:22 61.3 °F 56.5 °F 30 in Calm     84% 0 in 0 W/m2
21:27 61.2 °F 56.3 °F 30 in Calm     84% 0 in 0 W/m2
21:32 61.2 °F 55.9 °F 30 in WSW 0.9 mph 1 mph 83% 0 in 0 W/m2
21:37 61.2 °F 55.9 °F 30 in Calm     83% 0 in 0 W/m2
21:42 61.2 °F 55.9 °F 30 in Calm     83% 0 in 0 W/m2
21:47 61 °F 56.1 °F 30 in Calm     84% 0 in 0 W/m2
21:52 61 °F 56.1 °F 30 in Calm     84% 0 in 0 W/m2
21:57 60.6 °F 55.8 °F 30 in Calm     84% 0 in 0 W/m2
22:02 60.6 °F 55.8 °F 30 in Calm     84% 0 in 0 W/m2
22:07 60.4 °F 55.6 °F 30 in Calm   1 mph 84% 0 in 0 W/m2
22:12 60.3 °F 55.4 °F 30 in Calm     84% 0 in 0 W/m2
22:17 60.3 °F 55.8 °F 30 in Calm   1 mph 85% 0 in 0 W/m2
22:22 60.1 °F 55.6 °F 30 in Calm     85% 0 in 0 W/m2
22:27 59.9 °F 55.4 °F 30 in Calm     85% 0 in 0 W/m2
22:32 59.7 °F 55.6 °F 30 in Calm     86% 0 in 0 W/m2
22:37 59.5 °F 55.4 °F 30 in Calm     86% 0 in 0 W/m2
22:42 59.4 °F 55.2 °F 30 in Calm     86% 0 in 0 W/m2
22:47 59.2 °F 55 °F 30 in Calm     86% 0 in 0 W/m2
22:52 59 °F 55.2 °F 30 in Calm     87% 0 in 0 W/m2
22:57 58.8 °F 55 °F 30 in Calm     87% 0 in 0 W/m2
23:02 58.8 °F 54.7 °F 30 in Calm     86% 0 in 0 W/m2
23:07 58.6 °F 54.5 °F 30 in Calm     86% 0 in 0 W/m2
23:12 58.5 °F 54.3 °F 30 in Calm     86% 0 in 0 W/m2
23:17 58.5 °F 54.7 °F 30 in Calm     87% 0 in 0 W/m2
23:22 58.3 °F 54.5 °F 30 in Calm     87% 0 in 0 W/m2
23:27 58.1 °F 54.5 °F 30 in Calm   1 mph 88% 0 in 0 W/m2
23:32 58.1 °F 54.5 °F 30 in Calm     88% 0 in 0 W/m2
23:37 57.9 °F 54.3 °F 30 in Calm   2 mph 88% 0 in 0 W/m2
23:42 57.9 °F 54.3 °F 30 in Calm     88% 0 in 0 W/m2
23:47 57.7 °F 54.1 °F 30 in Calm     88% 0 in 0 W/m2
23:52 57.7 °F 54.1 °F 30 in Calm     88% 0 in 0 W/m2
23:58 57.6 °F 54 °F 30 in Calm   1 mph 88% 0 in 0 W/m2
Juneau County Weather
Compliments of Weather Underground - 4 mb